Time;durP1;ratioP1;P1;durP2;ratioP2;P2;SDS_P1;SDS_P2;PMS_P1;PMS_P2;Temp;Humidity;BMP_temperature;BMP_pressure;BME280_temperature;BME280_humidity;BME280_pressure;Samples;Min_cycle;Max_cycle;Signal;HPM_P1;HPM_P2
2021/08/12 00:01:08;;;;;;;;;;;;;;;25.12;44.53;94906.13;2162199;39;20644;-50
2021/08/12 00:03:10;;;;;;;;;;;;;;;25.10;44.78;94904.75;2161917;54;19946;-53
2021/08/12 00:05:12;;;;;;;;;;;;;;;25.13;44.89;94913.13;2161487;47;19946;-53
2021/08/12 00:07:14;;;;;;;;;;;;;;;25.20;45.00;94910.28;2162377;39;20709;-50
2021/08/12 00:09:15;;;;;;;;;;;;;;;25.28;45.00;94915.25;2162036;54;20086;-53
2021/08/12 00:11:17;;;;;;;;;;;;;;;25.34;44.57;94910.78;2162154;47;19950;-50
2021/08/12 00:13:19;;;;;;;;;;;;;;;25.41;44.20;94915.97;2161935;54;19946;-54
2021/08/12 00:15:21;;;;;;;;;;;;;;;25.46;44.40;94924.88;2161926;54;19958;-55
2021/08/12 00:17:22;;;;;;;;;;;;;;;25.49;44.83;94928.94;2161008;54;20540;-50
2021/08/12 00:19:24;;;;;;;;;;;;;;;25.50;44.50;94925.19;2162092;54;19954;-49
2021/08/12 00:21:26;;;;;;;;;;;;;;;25.48;44.67;94924.63;2161445;54;19950;-50
2021/08/12 00:23:27;;;;;;;;;;;;;;;25.43;45.05;94919.22;2162831;31;20381;-48
2021/08/12 00:25:29;;;;;;;;;;;;;;;25.40;45.10;94919.69;2162102;47;20337;-52
2021/08/12 00:27:30;;;;;;;;;;;;;;;25.36;45.02;94918.56;2161935;54;19947;-50
2021/08/12 00:29:32;;;;;;;;;;;;;;;25.29;45.36;94916.84;2160846;54;19994;-50
2021/08/12 00:31:34;;;;;;;;;;;;;;;25.27;45.07;94910.13;2161989;54;20050;-52
2021/08/12 00:33:36;;;;;;;;;;;;;;;25.27;44.74;94910.91;2163064;54;19946;-52
2021/08/12 00:35:38;;;;;;;;;;;;;;;25.30;44.88;94910.44;2162273;54;20030;-48
2021/08/12 00:37:39;;;;;;;;;;;;;;;25.31;44.70;94917.41;2162974;54;20022;-52
2021/08/12 00:39:41;;;;;;;;;;;;;;;25.34;44.86;94914.25;2162889;54;20495;-51
2021/08/12 00:41:43;;;;;;;;;;;;;;;25.39;44.56;94920.75;2163015;47;20052;-52
2021/08/12 00:43:44;;;;;;;;;;;;;;;25.34;44.42;94914.25;2162405;47;19955;-50
2021/08/12 00:45:46;;;;;;;;;;;;;;;25.22;44.68;94910.06;2162522;54;22456;-52
2021/08/12 00:47:48;;;;;;;;;;;;;;;25.15;45.06;94912.88;2163002;54;19953;-48
2021/08/12 00:49:49;;;;;;;;;;;;;;;25.12;44.72;94903.47;2162127;39;20365;-50
2021/08/12 00:51:51;;;;;;;;;;;;;;;25.12;44.99;94907.97;2162837;47;20029;-50
2021/08/12 00:53:52;;;;;;;;;;;;;;;25.14;45.07;94897.84;2163372;39;20460;-52
2021/08/12 00:55:54;;;;;;;;;;;;;;;25.13;45.15;94909.63;2162372;54;20006;-51
2021/08/12 00:57:56;;;;;;;;;;;;;;;25.06;45.09;94909.78;2162858;54;20054;-52
2021/08/12 00:59:57;;;;;;;;;;;;;;;24.81;45.73;94914.75;2162811;47;20455;-50
2021/08/12 01:01:59;;;;;;;;;;;;;;;24.60;46.28;94908.22;2163103;54;19958;-51
2021/08/12 01:04:01;;;;;;;;;;;;;;;24.52;46.56;94912.94;2162864;39;20395;-51
2021/08/12 01:06:03;;;;;;;;;;;;;;;24.48;46.92;94908.28;2162135;54;20046;-49
2021/08/12 01:08:06;;;;;;;;;;;;;;;24.39;47.29;94913.16;2162784;54;19950;-54
2021/08/12 01:10:09;;;;;;;;;;;;;;;24.31;47.98;94911.72;2162318;47;19955;-52
2021/08/12 01:12:14;;;;;;;;;;;;;;;24.33;47.43;94911.47;2162414;47;19994;-51
2021/08/12 01:14:27;;;;;;;;;;;;;;;24.43;47.67;94914.31;2162812;47;19946;-51
2021/08/12 01:16:30;;;;;;;;;;;;;;;24.55;46.95;94914.31;2162568;54;20030;-50
2021/08/12 01:18:50;;;;;;;;;;;;;;;24.64;46.78;94915.53;2162656;39;20431;-49
2021/08/12 01:21:10;;;;;;;;;;;;;;;24.45;47.58;94922.94;2162009;54;19946;-51
2021/08/12 01:23:13;;;;;;;;;;;;;;;24.48;47.20;94919.81;2162597;47;20038;-50
2021/08/12 01:25:22;;;;;;;;;;;;;;;24.48;47.72;94918.97;2162191;54;19995;-50
2021/08/12 01:27:28;;;;;;;;;;;;;;;24.46;47.74;94913.84;2161695;54;20106;-52
2021/08/12 01:29:48;;;;;;;;;;;;;;;24.32;48.02;94920.53;2161447;54;20037;-53
2021/08/12 01:32:04;;;;;;;;;;;;;;;24.26;48.09;94916.16;2161572;54;20129;-54
2021/08/12 01:34:17;;;;;;;;;;;;;;;24.10;48.22;94912.38;2159909;54;20049;-54
2021/08/12 01:36:18;;;;;;;;;;;;;;;23.94;48.70;94915.78;2162136;54;20041;-53
2021/08/12 01:38:21;;;;;;;;;;;;;;;23.05;50.69;94927.47;2161808;54;19980;-54
2021/08/12 01:40:23;;;;;;;;;;;;;;;22.76;51.82;94921.97;2161713;54;19950;-50
2021/08/12 01:42:28;;;;;;;;;;;;;;;22.22;53.33;94929.94;2162188;54;19955;-51
2021/08/12 01:44:31;;;;;;;;;;;;;;;21.89;53.95;94930.31;2162856;47;20034;-51
2021/08/12 01:46:33;;;;;;;;;;;;;;;21.73;54.59;94928.25;2162039;54;19971;-49
2021/08/12 01:48:35;;;;;;;;;;;;;;;21.52;54.91;94930.31;2161376;54;20463;-52
2021/08/12 01:50:37;;;;;;;;;;;;;;;21.22;55.94;94933.66;2161427;47;19951;-51
2021/08/12 01:52:39;;;;;;;;;;;;;;;20.99;56.43;94931.63;2162408;54;19947;-51
2021/08/12 01:54:42;;;;;;;;;;;;;;;20.93;56.75;94931.66;2162255;39;20270;-52
2021/08/12 01:56:43;;;;;;;;;;;;;;;20.99;56.60;94928.13;2162832;54;20503;-52
2021/08/12 01:58:46;;;;;;;;;;;;;;;20.86;57.06;94934.38;2161986;54;19946;-51
2021/08/12 02:00:48;;;;;;;;;;;;;;;20.84;57.29;94929.28;2161798;54;20083;-48
2021/08/12 02:02:50;;;;;;;;;;;;;;;20.68;57.75;94931.66;2161624;47;20051;-52
2021/08/12 02:04:53;;;;;;;;;;;;;;;20.49;58.09;94936.88;2161739;47;19970;-51
2021/08/12 02:06:54;;;;;;;;;;;;;;;20.41;58.26;94940.63;2162598;31;20486;-52
2021/08/12 02:08:56;;;;;;;;;;;;;;;20.51;58.16;94939.31;2161694;47;19995;-52
2021/08/12 02:10:57;;;;;;;;;;;;;;;20.59;57.63;94939.91;2161759;54;20471;-51
2021/08/12 02:13:01;;;;;;;;;;;;;;;20.78;57.16;94931.97;2162671;54;20478;-49
2021/08/12 02:15:04;;;;;;;;;;;;;;;21.04;56.45;94938.97;2161715;31;20413;-49
2021/08/12 02:17:06;;;;;;;;;;;;;;;21.36;55.54;94937.03;2162708;54;19939;-50
2021/08/12 02:19:07;;;;;;;;;;;;;;;21.63;54.42;94940.25;2162559;46;20040;-54
2021/08/12 02:21:11;;;;;;;;;;;;;;;21.89;53.56;94935.63;2162111;47;19954;-51
2021/08/12 02:23:14;;;;;;;;;;;;;;;22.06;53.09;94936.66;2161634;46;19974;-50
2021/08/12 02:25:36;;;;;;;;;;;;;;;22.19;52.75;94937.53;2162026;54;20016;-52
2021/08/12 02:27:41;;;;;;;;;;;;;;;22.30;51.85;94936.78;2162509;39;20043;-51
2021/08/12 02:29:42;;;;;;;;;;;;;;;22.43;51.84;94930.44;2161817;54;20023;-51
2021/08/12 02:31:45;;;;;;;;;;;;;;;22.53;51.61;94937.94;2162333;54;20005;-52
2021/08/12 02:33:47;;;;;;;;;;;;;;;22.63;51.36;94940.88;2161860;54;20061;-50
2021/08/12 02:35:48;;;;;;;;;;;;;;;22.64;50.87;94940.63;2161168;47;19966;-50
2021/08/12 02:37:50;;;;;;;;;;;;;;;22.74;50.91;94940.06;2162277;54;20507;-49
2021/08/12 02:39:52;;;;;;;;;;;;;;;22.69;50.79;94937.25;2163317;31;20402;-52
2021/08/12 02:41:53;;;;;;;;;;;;;;;22.74;51.04;94934.72;2162020;47;20712;-52
2021/08/12 02:43:55;;;;;;;;;;;;;;;22.77;50.71;94939.59;2161691;54;19947;-52
2021/08/12 02:45:57;;;;;;;;;;;;;;;22.80;50.76;94939.16;2162044;54;19947;-49
2021/08/12 02:47:59;;;;;;;;;;;;;;;22.84;50.32;94937.66;2161587;47;19946;-53
2021/08/12 02:50:00;;;;;;;;;;;;;;;22.87;50.50;94931.84;2160895;54;20065;-52
2021/08/12 02:52:02;;;;;;;;;;;;;;;22.87;50.58;94931.84;2162047;54;20031;-52
2021/08/12 02:54:05;;;;;;;;;;;;;;;22.84;50.29;94936.81;2162695;31;20410;-51
2021/08/12 02:56:10;;;;;;;;;;;;;;;22.84;50.30;94934.16;2162658;54;19950;-51
2021/08/12 02:58:12;;;;;;;;;;;;;;;22.89;50.08;94932.44;2162002;54;20068;-51
2021/08/12 03:00:13;;;;;;;;;;;;;;;22.95;49.94;94933.38;2161461;54;20038;-51
2021/08/12 03:02:16;;;;;;;;;;;;;;;23.03;49.80;94930.38;2162496;47;19951;-54
2021/08/12 03:04:21;;;;;;;;;;;;;;;23.09;49.93;94932.13;2162435;54;19953;-49
2021/08/12 03:06:22;;;;;;;;;;;;;;;23.13;49.48;94937.84;2162119;47;19958;-52
2021/08/12 03:08:24;;;;;;;;;;;;;;;23.18;49.35;94937.94;2162203;54;20058;-52
2021/08/12 03:10:25;;;;;;;;;;;;;;;23.21;49.67;94928.63;2161492;54;19971;-50
2021/08/12 03:12:27;;;;;;;;;;;;;;;23.24;49.44;94928.19;2162158;54;19954;-48
2021/08/12 03:14:30;;;;;;;;;;;;;;;23.26;49.42;94932.25;2161445;54;19954;-49
2021/08/12 03:16:32;;;;;;;;;;;;;;;23.29;49.47;94933.66;2162609;54;19950;-48
2021/08/12 03:18:34;;;;;;;;;;;;;;;23.29;49.42;94936.31;2162932;54;19994;-51
2021/08/12 03:20:36;;;;;;;;;;;;;;;23.29;49.01;94939.78;2161407;46;20010;-49
2021/08/12 03:22:38;;;;;;;;;;;;;;;23.31;49.18;94943.06;2161987;54;19999;-50
2021/08/12 03:24:40;;;;;;;;;;;;;;;23.35;49.28;94942.59;2162443;47;19950;-52
2021/08/12 03:26:41;;;;;;;;;;;;;;;23.41;48.78;94941.69;2161921;54;19985;-51
2021/08/12 03:28:43;;;;;;;;;;;;;;;23.44;49.11;94943.88;2162491;54;20006;-50
2021/08/12 03:30:45;;;;;;;;;;;;;;;23.40;49.14;94940.03;2162034;39;20427;-49
2021/08/12 03:32:47;;;;;;;;;;;;;;;23.41;48.95;94944.34;2161836;54;19954;-52
2021/08/12 03:34:49;;;;;;;;;;;;;;;23.44;48.89;94949.22;2161553;54;20030;-52
2021/08/12 03:36:50;;;;;;;;;;;;;;;23.39;48.90;94946.44;2162632;47;19958;-50
2021/08/12 03:38:52;;;;;;;;;;;;;;;23.36;48.94;94945.06;2162167;47;19950;-48
2021/08/12 03:40:54;;;;;;;;;;;;;;;23.40;49.17;94945.38;2162601;47;20490;-51
2021/08/12 03:42:55;;;;;;;;;;;;;;;23.35;49.19;94948.75;2162492;39;20696;-51
2021/08/12 03:44:57;;;;;;;;;;;;;;;23.25;49.45;94940.50;2162191;54;19957;-49
2021/08/12 03:46:59;;;;;;;;;;;;;;;23.26;49.53;94942.13;2161776;54;20093;-52
2021/08/12 03:49:03;;;;;;;;;;;;;;;23.31;49.24;94948.41;2162404;54;20309;-52
2021/08/12 03:51:04;;;;;;;;;;;;;;;23.40;49.08;94945.38;2161460;47;19951;-52
2021/08/12 03:53:06;;;;;;;;;;;;;;;23.44;49.08;94954.56;2162208;47;20565;-55
2021/08/12 03:55:08;;;;;;;;;;;;;;;23.42;48.81;94953.97;2162356;54;19971;-53
2021/08/12 03:57:09;;;;;;;;;;;;;;;23.45;49.02;94953.53;2162260;46;20045;-47
2021/08/12 03:59:11;;;;;;;;;;;;;;;23.48;49.06;94953.06;2162176;39;20379;-48
2021/08/12 04:01:13;;;;;;;;;;;;;;;23.56;48.86;94955.38;2161700;54;19994;-52
2021/08/12 04:03:15;;;;;;;;;;;;;;;23.59;48.67;94959.44;2162138;54;20455;-53
2021/08/12 04:05:16;;;;;;;;;;;;;;;23.60;48.74;94961.91;2159207;54;19954;-53
2021/08/12 04:07:18;;;;;;;;;;;;;;;23.56;48.35;94960.72;2161215;54;19998;-53
2021/08/12 04:09:20;;;;;;;;;;;;;;;23.55;48.47;94963.63;2161847;39;20324;-51
2021/08/12 04:11:21;;;;;;;;;;;;;;;23.53;48.92;94966.53;2162183;54;19946;-53
2021/08/12 04:13:23;;;;;;;;;;;;;;;23.46;48.98;94955.94;2162921;39;20265;-52
2021/08/12 04:15:25;;;;;;;;;;;;;;;23.41;49.02;94961.19;2161404;54;20119;-51
2021/08/12 04:17:26;;;;;;;;;;;;;;;23.23;49.50;94972.81;2162624;54;19954;-50
2021/08/12 04:19:28;;;;;;;;;;;;;;;22.89;50.10;94966.34;2162667;47;19954;-49
2021/08/12 04:21:30;;;;;;;;;;;;;;;23.01;50.05;94975.22;2162004;47;20400;-48
2021/08/12 04:23:31;;;;;;;;;;;;;;;23.16;49.87;94969.44;2162783;54;19951;-52
2021/08/12 04:25:35;;;;;;;;;;;;;;;23.34;49.49;94968.53;2162912;47;20023;-50
2021/08/12 04:27:37;;;;;;;;;;;;;;;23.50;48.79;94970.47;2161777;54;19959;-49
2021/08/12 04:29:38;;;;;;;;;;;;;;;23.55;48.96;94975.13;2161999;54;19958;-49
2021/08/12 04:31:40;;;;;;;;;;;;;;;23.42;49.05;94976.19;2162293;54;19990;-52
2021/08/12 04:33:42;;;;;;;;;;;;;;;23.26;49.44;94983.03;2162389;47;19947;-48
2021/08/12 04:35:44;;;;;;;;;;;;;;;23.41;49.64;94979.09;2162438;39;20508;-50
2021/08/12 04:37:46;;;;;;;;;;;;;;;23.61;49.14;94978.75;2162807;54;20002;-50
2021/08/12 04:39:48;;;;;;;;;;;;;;;23.83;48.49;94985.16;2162687;54;19946;-52
2021/08/12 04:41:49;;;;;;;;;;;;;;;23.96;48.02;94983.25;2162571;54;19953;-50
2021/08/12 04:43:51;;;;;;;;;;;;;;;24.05;47.59;94984.53;2163150;39;20388;-52
2021/08/12 04:45:52;;;;;;;;;;;;;;;24.16;47.75;94980.22;2162399;54;20091;-50
2021/08/12 04:48:01;;;;;;;;;;;;;;;24.26;47.38;94988.44;2162581;54;19946;-49
2021/08/12 04:50:03;;;;;;;;;;;;;;;24.32;46.91;94987.47;2162159;54;19946;-48
2021/08/12 04:52:05;;;;;;;;;;;;;;;24.25;47.52;94984.13;2161901;47;20522;-50
2021/08/12 04:54:07;;;;;;;;;;;;;;;24.12;47.36;94979.88;2162457;39;20279;-54
2021/08/12 04:56:08;;;;;;;;;;;;;;;24.01;47.48;94988.75;2162628;54;19950;-53
2021/08/12 04:58:11;;;;;;;;;;;;;;;23.67;48.32;94991.19;2162279;54;19946;-51
2021/08/12 05:00:12;;;;;;;;;;;;;;;;;;2162008;54;19994;-54
2021/08/12 05:02:14;;;;;;;;;;;;;;;23.29;49.81;94992.44;2162167;47;20006;-49
2021/08/12 05:04:16;;;;;;;;;;;;;;;23.44;49.57;94992.81;2162061;47;20029;-48
2021/08/12 05:06:17;;;;;;;;;;;;;;;23.31;49.74;94995.69;2161899;54;20438;-51
2021/08/12 05:08:24;;;;;;;;;;;;;;;23.05;50.29;94999.63;2162580;47;19974;-50
2021/08/12 05:10:26;;;;;;;;;;;;;;;22.95;50.74;95000.16;2162906;54;19950;-51
2021/08/12 05:12:27;;;;;;;;;;;;;;;22.99;51.06;95001.31;2163029;39;20304;-50
2021/08/12 05:14:29;;;;;;;;;;;;;;;23.19;50.81;95000.22;2162443;54;20455;-53
2021/08/12 05:16:31;;;;;;;;;;;;;;;23.38;50.30;95003.59;2162391;51;19947;-49
2021/08/12 05:18:33;;;;;;;;;;;;;;;23.26;50.55;95009.75;2162447;54;19954;-56
2021/08/12 05:20:35;;;;;;;;;;;;;;;23.36;50.62;95003.03;2161372;54;20367;-56
2021/08/12 05:22:37;;;;;;;;;;;;;;;23.41;50.93;95005.84;2162156;54;19997;-54
2021/08/12 05:24:38;;;;;;;;;;;;;;;23.56;50.56;95008.06;2162596;54;19954;-52
2021/08/12 05:26:40;;;;;;;;;;;;;;;23.39;50.90;95007.94;2162468;54;19973;-52
2021/08/12 05:28:41;;;;;;;;;;;;;;;23.28;51.32;95018.38;2162874;54;20070;-52
2021/08/12 05:30:43;;;;;;;;;;;;;;;23.46;50.92;95012.09;2162467;46;20037;-52
2021/08/12 05:32:45;;;;;;;;;;;;;;;23.45;51.38;95009.69;2161896;54;19947;-51
2021/08/12 05:34:47;;;;;;;;;;;;;;;23.67;51.14;95021.41;2161204;47;19946;-58
2021/08/12 05:36:59;;;;;;;;;;;;;;;23.91;50.63;95016.06;2163996;39;20477;-51
2021/08/12 05:39:01;;;;;;;;;;;;;;;24.19;49.75;95007.28;2161899;54;20030;-50
2021/08/12 05:41:02;;;;;;;;;;;;;;;24.46;49.77;95020.16;2161634;47;20057;-54
2021/08/12 05:43:38;;;;;;;;;;;;;;;24.28;49.70;95013.91;2163065;31;20513;-56
2021/08/12 05:45:39;;;;;;;;;;;;;;;24.17;50.13;95019.28;2161932;54;19954;-57
2021/08/12 05:47:41;;;;;;;;;;;;;;;24.05;50.43;95022.00;2162723;54;19946;-60
2021/08/12 05:49:43;;;;;;;;;;;;;;;23.97;51.21;95020.50;2161798;39;20382;-59
2021/08/12 05:51:44;;;;;;;;;;;;;;;24.20;50.33;95019.66;2162289;47;19951;-60
2021/08/12 05:56:30;;;;;;;;;;;;;;;24.48;49.91;95016.22;2161399;54;19949;-58
2021/08/12 05:58:33;;;;;;;;;;;;;;;24.69;49.01;95024.63;2162766;54;19999;-59
2021/08/12 06:00:34;;;;;;;;;;;;;;;24.87;48.71;95021.75;2161956;47;19953;-59
2021/08/12 06:02:36;;;;;;;;;;;;;;;24.97;48.99;95029.16;2162370;54;19975;-58
2021/08/12 06:04:38;;;;;;;;;;;;;;;25.01;48.56;95029.50;2161960;54;19953;-57
2021/08/12 06:06:40;;;;;;;;;;;;;;;24.85;49.25;95029.22;2162675;47;19946;-57
2021/08/12 06:08:42;;;;;;;;;;;;;;;24.82;49.35;95026.22;2162498;54;20669;-55
2021/08/12 06:10:43;;;;;;;;;;;;;;;24.93;49.09;95038.75;2162726;54;19969;-50
2021/08/12 06:12:45;;;;;;;;;;;;;;;25.02;48.75;95031.94;2162452;54;19950;-49
2021/08/12 06:14:47;;;;;;;;;;;;;;;24.93;48.43;95028.84;2162113;46;19967;-52
2021/08/12 06:16:49;;;;;;;;;;;;;;;25.02;48.49;95025.78;2162647;47;19946;-53
2021/08/12 06:18:51;;;;;;;;;;;;;;;25.25;47.87;95031.03;2162396;54;19957;-54
2021/08/12 06:20:53;;;;;;;;;;;;;;;25.53;47.50;95029.31;2161913;39;20262;-50
2021/08/12 06:22:54;;;;;;;;;;;;;;;25.79;46.52;95018.97;2161904;54;19954;-53
2021/08/12 06:24:56;;;;;;;;;;;;;;;25.99;45.93;95023.84;2162051;47;19951;-51
2021/08/12 06:26:58;;;;;;;;;;;;;;;26.10;46.04;95025.59;2161319;54;19947;-51
2021/08/12 06:28:59;;;;;;;;;;;;;;;26.11;46.11;95030.75;2162020;54;19994;-54
2021/08/12 06:31:01;;;;;;;;;;;;;;;26.20;45.98;95030.28;2161823;47;20046;-49
2021/08/12 06:33:03;;;;;;;;;;;;;;;26.07;46.02;95028.78;2162536;39;20428;-50
2021/08/12 07:13:59;;;;;;;;;;;;;;;26.27;46.76;95047.84;2162574;54;19950;-50
2021/08/12 07:16:02;;;;;;;;;;;;;;;26.44;46.14;95042.44;2161630;39;20400;-52
2021/08/12 07:18:03;;;;;;;;;;;;;;;26.30;46.84;95046.53;2161908;54;20443;-49
2021/08/12 07:20:10;;;;;;;;;;;;;;;26.47;46.40;95041.91;2161276;54;20002;-50
2021/08/12 07:22:11;;;;;;;;;;;;;;;26.54;46.42;95039.03;2162158;46;20078;-52
2021/08/12 07:24:13;;;;;;;;;;;;;;;26.81;45.53;95041.78;2161879;54;19999;-53
2021/08/12 07:26:15;;;;;;;;;;;;;;;27.07;45.21;95044.75;2161450;54;19979;-53
2021/08/12 07:28:17;;;;;;;;;;;;;;;27.33;44.84;95043.94;2161837;54;19975;-52
2021/08/12 07:30:18;;;;;;;;;;;;;;;27.18;44.90;95044.56;2161800;54;19966;-53
2021/08/12 07:32:20;;;;;;;;;;;;;;;27.26;44.54;95046.03;2162186;54;19962;-53
2021/08/12 07:34:21;;;;;;;;;;;;;;;27.49;44.14;95039.50;2161772;47;19951;-50
2021/08/12 07:36:23;;;;;;;;;;;;;;;27.65;44.39;95048.50;2160192;54;20031;-51
2021/08/12 07:38:25;;;;;;;;;;;;;;;27.51;44.35;95050.84;2162204;54;19998;-53
2021/08/12 07:40:27;;;;;;;;;;;;;;;27.53;44.02;95056.75;2161308;54;20501;-51
2021/08/12 07:42:28;;;;;;;;;;;;;;;27.51;43.51;95050.84;2162673;46;19955;-52
2021/08/12 07:44:30;;;;;;;;;;;;;;;27.52;43.53;95051.63;2162507;47;19953;-54
2021/08/12 07:46:32;;;;;;;;;;;;;;;27.01;44.82;95051.13;2163150;46;19994;-52
2021/08/12 07:48:36;;;;;;;;;;;;;;;27.35;43.96;95047.19;2161788;54;19954;-54
2021/08/12 07:50:37;;;;;;;;;;;;;;;27.67;43.27;95050.94;2162407;47;20398;-49
2021/08/12 07:52:40;;;;;;;;;;;;;;;27.37;43.36;95055.00;2162902;54;20777;-52
2021/08/12 07:54:46;;;;;;;;;;;;;;;27.34;43.18;95053.66;2163043;54;19951;-55
2021/08/12 07:56:48;;;;;;;;;;;;;;;27.38;43.17;95048.53;2162597;39;20422;-54
2021/08/12 07:58:50;;;;;;;;;;;;;;;27.56;42.99;95052.75;2162316;54;20035;-51
2021/08/12 08:00:53;;;;;;;;;;;;;;;27.75;42.39;95051.28;2162611;39;20518;-52
2021/08/12 08:02:55;;;;;;;;;;;;;;;27.98;42.47;95052.81;2162980;54;19954;-52
2021/08/12 08:04:57;;;;;;;;;;;;;;;28.07;42.53;95055.00;2162100;46;19973;-49
2021/08/12 08:07:02;;;;;;;;;;;;;;;28.17;41.99;95045.09;2162447;54;20038;-52
2021/08/12 08:09:03;;;;;;;;;;;;;;;28.42;41.24;95051.69;2162875;54;19946;-50
2021/08/12 08:11:05;;;;;;;;;;;;;;;28.64;40.87;95046.16;2162727;46;19966;-49
2021/08/12 08:13:07;;;;;;;;;;;;;;;28.69;40.08;95045.34;2162797;46;19998;-52
2021/08/12 08:15:09;;;;;;;;;;;;;;;28.24;40.65;95046.75;2162374;54;20074;-51
2021/08/12 08:17:30;;;;;;;;;;;;;;;27.96;40.05;95049.56;2162453;39;20348;-52
2021/08/12 08:19:32;;;;;;;;;;;;;;;28.03;40.09;95046.66;2162687;54;20605;-54
2021/08/12 08:21:35;;;;;;;;;;;;;;;28.14;40.23;95042.94;2162368;47;19957;-51
2021/08/12 08:23:37;;;;;;;;;;;;;;;28.00;41.03;95033.69;2162764;46;20080;-50
2021/08/12 08:25:39;;;;;;;;;;;;;;;28.27;40.10;95038.97;2162207;54;19954;-55
2021/08/12 08:27:40;;;;;;;;;;;;;;;28.62;39.22;95042.91;2162546;54;20018;-53
2021/08/12 08:29:58;;;;;;;;;;;;;;;28.59;38.65;95049.63;2162890;39;20377;-52
2021/08/12 08:31:59;;;;;;;;;;;;;;;28.44;38.34;95044.16;2162890;47;19986;-52
2021/08/12 08:34:01;;;;;;;;;;;;;;;28.28;38.60;95042.44;2162387;54;19980;-51
2021/08/12 08:36:03;;;;;;;;;;;;;;;28.62;37.09;95042.09;2161188;47;19994;-52
2021/08/12 08:38:05;;;;;;;;;;;;;;;28.75;36.19;95039.69;2161913;54;20002;-53
2021/08/12 08:40:07;;;;;;;;;;;;;;;28.91;35.94;95039.75;2162329;54;19947;-52
2021/08/12 08:42:11;;;;;;;;;;;;;;;29.16;35.49;95036.31;2162607;47;19994;-47
2021/08/12 08:44:13;;;;;;;;;;;;;;;29.30;35.34;95032.03;2162865;54;19946;-52
2021/08/12 08:46:15;;;;;;;;;;;;;;;29.48;34.91;95032.56;2162139;54;19947;-51
2021/08/12 08:48:16;;;;;;;;;;;;;;;29.59;34.38;95034.19;2161899;51;19994;-53
2021/08/12 08:50:19;;;;;;;;;;;;;;;29.79;34.09;95034.22;2160967;47;20113;-51
2021/08/12 08:52:21;;;;;;;;;;;;;;;29.81;34.25;95042.03;2162479;54;19950;-51
2021/08/12 08:54:23;;;;;;;;;;;;;;;29.90;33.54;95035.00;2162514;47;20038;-51
2021/08/12 08:56:25;;;;;;;;;;;;;;;30.05;33.53;95028.78;2162424;54;19980;-49
2021/08/12 08:58:26;;;;;;;;;;;;;;;30.04;33.78;95031.75;2162271;54;19997;-54
2021/08/12 09:00:28;;;;;;;;;;;;;;;29.91;33.95;95038.50;2162377;54;20490;-51
2021/08/12 09:02:30;;;;;;;;;;;;;;;29.61;33.79;95032.03;2162606;47;19950;-47
2021/08/12 09:04:33;;;;;;;;;;;;;;;29.05;34.24;95029.28;2161737;47;19947;-49
2021/08/12 09:06:36;;;;;;;;;;;;;;;28.68;35.50;95025.69;2162334;47;19974;-52
2021/08/12 09:08:37;;;;;;;;;;;;;;;29.14;34.54;95023.09;2162221;39;20376;-47
2021/08/12 09:10:39;;;;;;;;;;;;;;;29.57;33.79;95025.53;2162397;47;19947;-52
2021/08/12 09:12:41;;;;;;;;;;;;;;;29.98;32.64;95025.53;2162542;54;20364;-52
2021/08/12 09:14:42;;;;;;;;;;;;;;;30.28;32.69;95024.66;2162453;54;20447;-51
2021/08/12 09:16:46;;;;;;;;;;;;;;;30.26;31.92;95026.00;2162391;47;19954;-51
2021/08/12 09:18:47;;;;;;;;;;;;;;;30.01;32.66;95023.09;2162238;54;19990;-52
2021/08/12 09:20:50;;;;;;;;;;;;;;;30.12;32.20;95021.19;2160884;54;19999;-52
2021/08/12 09:22:52;;;;;;;;;;;;;;;30.24;31.92;95028.16;2162385;54;20037;-51
2021/08/12 09:24:56;;;;;;;;;;;;;;;30.48;31.60;95021.09;2162842;54;19954;-54
2021/08/12 09:26:58;;;;;;;;;;;;;;;30.29;31.42;95020.91;2161801;54;20427;-50
2021/08/12 09:28:59;;;;;;;;;;;;;;;30.61;31.02;95023.19;2161943;47;19960;-54
2021/08/12 09:31:01;;;;;;;;;;;;;;;30.40;31.17;95021.66;2161787;39;20140;-55
2021/08/12 09:33:03;;;;;;;;;;;;;;;30.43;31.51;95029.22;2162448;54;20439;-54
2021/08/12 09:35:05;;;;;;;;;;;;;;;30.64;30.61;95029.13;2162219;47;19950;-53
2021/08/12 09:37:07;;;;;;;;;;;;;;;30.27;30.86;95016.81;2161430;54;19971;-52
2021/08/12 09:39:09;;;;;;;;;;;;;;;30.06;30.95;95022.28;2162047;47;20070;-54
2021/08/12 09:41:10;;;;;;;;;;;;;;;30.18;30.76;95025.50;2162584;54;19994;-54
2021/08/12 09:43:12;;;;;;;;;;;;;;;30.29;30.92;95026.28;2162467;54;19951;-51
2021/08/12 09:45:24;;;;;;;;;;;;;;;30.56;30.27;95022.41;2162139;47;20002;-52
2021/08/12 09:47:28;;;;;;;;;;;;;;;30.28;30.16;95021.97;2162175;47;19950;-53
2021/08/12 09:49:37;;;;;;;;;;;;;;;30.37;29.98;95023.03;2162299;46;19947;-49
2021/08/12 09:51:38;;;;;;;;;;;;;;;30.46;29.70;95020.56;2161950;39;20404;-48
2021/08/12 09:53:40;;;;;;;;;;;;;;;30.46;29.82;95017.84;2162756;46;20010;-54
2021/08/12 09:55:42;;;;;;;;;;;;;;;30.59;29.71;95019.97;2162490;54;20010;-53
2021/08/12 09:57:44;;;;;;;;;;;;;;;30.95;28.88;95013.56;2162752;39;20372;-53
2021/08/12 09:59:50;;;;;;;;;;;;;;;31.30;28.29;95012.53;2161963;54;19946;-50
2021/08/12 10:02:10;;;;;;;;;;;;;;;31.69;28.47;95019.03;2162530;47;19990;-49
2021/08/12 10:04:21;;;;;;;;;;;;;;;31.79;28.02;95013.50;2162437;46;20530;-56
2021/08/12 10:06:27;;;;;;;;;;;;;;;31.53;27.97;95016.41;2161886;54;20639;-52
2021/08/12 10:08:30;;;;;;;;;;;;;;;31.53;28.10;95015.63;2162204;54;19947;-51
2021/08/12 10:10:33;;;;;;;;;;;;;;;31.01;28.45;95015.97;2162338;54;21473;-49
2021/08/12 10:12:35;;;;;;;;;;;;;;;30.64;28.74;95008.31;2161993;47;19950;-51
2021/08/12 10:14:37;;;;;;;;;;;;;;;30.61;28.84;95020.50;2162258;54;19954;-53
2021/08/12 10:16:38;;;;;;;;;;;;;;;30.86;28.28;95005.22;2162556;46;19965;-50
2021/08/12 10:18:41;;;;;;;;;;;;;;;30.45;28.96;95008.13;2162412;54;20542;-50
2021/08/12 10:20:43;;;;;;;;;;;;;;;30.95;28.58;95011.66;2161541;54;19954;-49
2021/08/12 10:22:45;;;;;;;;;;;;;;;31.33;27.99;95003.84;2161269;46;19979;-51
2021/08/12 10:24:47;;;;;;;;;;;;;;;31.59;27.38;95003.66;2162326;54;19951;-51
2021/08/12 10:26:49;;;;;;;;;;;;;;;31.58;27.35;95005.56;2162385;54;19971;-47
2021/08/12 10:28:51;;;;;;;;;;;;;;;30.85;28.53;95000.06;2161624;46;20002;-53
2021/08/12 10:30:53;;;;;;;;;;;;;;;30.12;29.32;95007.66;2162043;54;19946;-54
2021/08/12 10:32:56;;;;;;;;;;;;;;;30.22;29.84;95014.91;2161610;54;19969;-52
2021/08/12 10:34:57;;;;;;;;;;;;;;;30.27;29.50;95014.13;2161594;54;19994;-55
2021/08/12 10:36:59;;;;;;;;;;;;;;;29.89;29.55;95016.38;2162136;47;19955;-48
2021/08/12 10:39:01;;;;;;;;;;;;;;;30.29;29.34;95015.50;2160905;46;20093;-48
2021/08/12 10:41:02;;;;;;;;;;;;;;;30.61;28.55;95011.56;2161581;47;20031;-52
2021/08/12 10:43:04;;;;;;;;;;;;;;;30.82;27.34;95014.97;2162214;54;20004;-51
2021/08/12 10:45:06;;;;;;;;;;;;;;;30.70;27.63;95003.69;2162354;54;20443;-48
2021/08/12 10:47:28;;;;;;;;;;;;;;;30.97;27.07;95001.38;2161344;54;19954;-49
2021/08/12 10:49:33;;;;;;;;;;;;;;;31.35;27.09;94998.16;2162114;47;19950;-50
2021/08/12 10:51:43;;;;;;;;;;;;;;;31.03;26.88;95002.16;2161947;39;20477;-49
2021/08/12 10:53:45;;;;;;;;;;;;;;;31.07;27.91;94999.72;2161560;54;19957;-53
2021/08/12 10:55:47;;;;;;;;;;;;;;;31.10;28.52;95008.06;2161817;47;19994;-48
2021/08/12 10:57:48;;;;;;;;;;;;;;;31.01;29.28;95015.97;2162398;39;20450;-49
2021/08/12 10:59:51;;;;;;;;;;;;;;;30.75;29.57;95011.75;2161877;39;20410;-53
2021/08/12 11:01:53;;;;;;;;;;;;;;;30.35;30.68;95011.69;2162149;39;20034;-48
2021/08/12 11:03:58;;;;;;;;;;;;;;;30.32;31.04;95008.72;2162473;47;20431;-50
2021/08/12 11:06:06;;;;;;;;;;;;;;;30.32;31.07;95009.50;2161419;54;20451;-49
2021/08/12 11:08:10;;;;;;;;;;;;;;;30.36;31.40;95009.78;2161849;47;19954;-51
2021/08/12 11:10:12;;;;;;;;;;;;;;;30.18;31.90;95020.09;2162346;54;19991;-52
2021/08/12 11:12:14;;;;;;;;;;;;;;;29.93;32.79;95010.16;2162124;47;20006;-49
2021/08/12 11:14:16;;;;;;;;;;;;;;;29.64;34.04;95028.78;2162080;54;20480;-49
2021/08/12 11:16:18;;;;;;;;;;;;;;;29.45;35.94;95033.94;2161529;54;19954;-51
2021/08/12 11:18:39;;;;;;;;;;;;;;;29.02;36.19;95035.19;2162680;47;19954;-50
2021/08/12 11:20:42;;;;;;;;;;;;;;;28.33;39.95;95046.00;2162175;39;20403;-52
2021/08/12 11:22:44;;;;;;;;;;;;;;;28.47;39.97;95046.31;2161542;47;19954;-51